West Shokan, NY

9:44 AM EST on January 29, 2015 (GMT -0500)
Clover St. | Change Station
CLOSE
Current Station
Personal Weather Station
Location: West Hurley, NY
Elevation: 627 ft
Nearby Weather Stations

Elev 627 ft 42.00 °N, 74.10 °W | Updated 15 minutes ago

Partly Cloudy
Partly Cloudy
15.4 °F
Feels Like 15 °F
N
2.2
Wind Variable Wind from WSW

Today
High -- | Low -- °F
--% Chance of Precip.
Yesterday
High -- | Low -- °F
Precip. -- in
7:12 AM 5:08 PM
Waxing Gibbous, 74% visible
Pressure 30.33 in
Visibility 10.0 miles
Clouds Clear
Windchill 15 °F
Dew Point 5 °F
Humidity 63%
Rainfall 0.00 in
Snow Depth Not available.
UV 1 out of 12
Pollen .10 out of 12
Air Quality Not available.
Flu Activity Not available.
METAR KMGJ 291354Z AUTO 00000KT 10SM CLR M16/M20 A3031 RMK AO2 SLP271 T11611200 TSNO $

More Conditions Fewer Conditions

Pressure 30.33 in
Visibility 10.0 miles
Clouds Clear
Windchill 15 °F
Dew Point 5 °F
Humidity 63%
Rainfall 0.00 in
Snow Depth Not available.
UV 1 out of 12
Pollen .10 out of 12
Air Quality Not available.
Flu Activity Not available.
METAR KMGJ 291354Z AUTO 00000KT 10SM CLR M16/M20 A3031 RMK AO2 SLP271 T11611200 TSNO $

More Conditions Fewer Conditions

10-Day Weather Forecast

Almanac

Astronomy

Jan. 29, 2015 Rise Set
Actual Time
Civil Twilight
Nautical Twilight
Astronomical Twilight
Moon
Length of Visible Light
Length of Day
Tomorrow will be .
, % of the Moon is Illuminated

Today's Extremes

State Highs State Lows

Community

WunderPhotos

Upload Photos

1,791,443 photos uploaded!

WunderBlogs® & News

Nearby

Air Quality

  Air Quality AQ Index Pollutant
Not available.

Snow Depth

Station Depth Elevation

Earthquake Activity

City Distance Mag. Time & Date
Minimum magnitude displayed is 2.5.

Coastal Water Temperatures

Place Temperature

Nearby Weather Stations